createdAt,value
2019-02-26T00:01:31.818Z,95943.27
2019-02-26T00:04:00.523Z,95931.87
2019-02-26T00:06:30.235Z,95924.73
2019-02-26T00:09:01.393Z,95922.81
2019-02-26T00:11:30.850Z,95921.55
2019-02-26T00:14:00.064Z,95913.47
2019-02-26T00:16:28.751Z,95912.44
2019-02-26T00:19:00.731Z,95906.30
2019-02-26T00:21:29.276Z,95901.44
2019-02-26T00:23:58.591Z,95896.31
2019-02-26T00:26:27.202Z,95889.47
2019-02-26T00:28:57.203Z,95889.80
2019-02-26T00:31:28.152Z,95887.47
2019-02-26T00:33:56.840Z,95878.41
2019-02-26T00:36:27.193Z,95875.30
2019-02-26T00:38:56.175Z,95869.48
2019-02-26T00:41:26.825Z,95881.89
2019-02-26T00:43:57.723Z,95877.91
2019-02-26T00:46:28.471Z,95886.63
2019-02-26T00:48:59.068Z,95893.45
2019-02-26T00:51:28.151Z,95891.00
2019-02-26T00:53:57.425Z,95880.33
2019-02-26T00:56:29.144Z,95867.44
2019-02-26T00:58:57.731Z,95862.22
2019-02-26T01:01:27.273Z,95860.10
2019-02-26T01:03:55.997Z,95853.16
2019-02-26T01:06:26.742Z,95847.34
2019-02-26T01:08:55.206Z,95837.13
2019-02-26T01:11:25.598Z,95835.98
2019-02-26T01:13:55.149Z,95837.42
2019-02-26T01:16:24.889Z,95848.10
2019-02-26T01:18:53.572Z,95839.73
2019-02-26T01:21:26.143Z,95841.47
2019-02-26T01:23:52.667Z,95832.94
2019-02-26T01:26:21.340Z,95842.59
2019-02-26T01:28:53.573Z,95844.56
2019-02-26T01:31:22.397Z,95842.89
2019-02-26T01:33:52.976Z,95841.58
2019-02-26T01:36:23.671Z,95843.45
2019-02-26T01:38:53.181Z,95842.99
2019-02-26T01:41:23.241Z,95849.46
2019-02-26T01:43:52.610Z,95844.38
2019-02-26T01:46:21.269Z,95850.77
2019-02-26T01:48:50.066Z,95846.26
2019-02-26T01:51:19.464Z,95841.48
2019-02-26T01:53:51.416Z,95839.06
2019-02-26T01:56:20.563Z,95836.61
2019-02-26T01:58:56.317Z,95846.83
2019-02-26T02:01:23.282Z,95844.46
2019-02-26T02:03:51.334Z,95841.26
2019-02-26T02:06:20.799Z,95850.30
2019-02-26T02:08:50.683Z,95845.91
2019-02-26T02:11:23.563Z,95847.23
2019-02-26T02:13:50.538Z,95843.86
2019-02-26T02:16:19.431Z,95845.06
2019-02-26T02:18:50.662Z,95837.94
2019-02-26T02:21:18.558Z,95839.43
2019-02-26T02:23:49.214Z,95835.73
2019-02-26T02:26:17.965Z,95836.62
2019-02-26T02:28:46.657Z,95834.44
2019-02-26T02:31:16.774Z,95840.70
2019-02-26T02:33:45.562Z,95837.41
2019-02-26T02:36:15.112Z,95829.97
2019-02-26T02:38:44.676Z,95835.78
2019-02-26T02:41:13.465Z,95839.01
2019-02-26T02:43:42.108Z,95830.08
2019-02-26T02:46:10.839Z,95826.99
2019-02-26T02:48:39.522Z,95825.11
2019-02-26T02:51:10.834Z,95831.28
2019-02-26T02:53:38.642Z,95828.02
2019-02-26T02:56:09.863Z,95814.05
2019-02-26T02:58:38.627Z,95814.66
2019-02-26T03:01:08.385Z,95814.91
2019-02-26T03:03:36.989Z,95815.50
2019-02-26T03:06:09.551Z,95811.39
2019-02-26T03:08:39.436Z,95809.16
2019-02-26T03:11:08.073Z,95804.73
2019-02-26T03:13:36.834Z,95804.30
2019-02-26T03:16:05.435Z,95796.36
2019-02-26T03:18:34.109Z,95795.58
2019-02-26T03:21:04.809Z,95797.31
2019-02-26T03:23:33.970Z,95797.12
2019-02-26T03:26:03.857Z,95794.30
2019-02-26T03:28:34.842Z,95796.52
2019-02-26T03:31:03.176Z,95795.98
2019-02-26T03:33:31.970Z,95797.26
2019-02-26T03:36:00.844Z,95798.07
2019-02-26T03:38:29.530Z,95801.61
2019-02-26T03:41:01.105Z,95802.95
2019-02-26T03:43:31.263Z,95801.79
2019-02-26T03:45:59.391Z,95793.13
2019-02-26T03:48:28.066Z,95783.00
2019-02-26T03:51:00.551Z,95780.70
2019-02-26T03:53:30.204Z,95785.34
2019-02-26T03:56:01.973Z,95781.23
2019-02-26T03:58:28.438Z,95784.25
2019-02-26T04:01:01.686Z,95781.73
2019-02-26T04:03:30.119Z,95780.17
2019-02-26T04:06:00.416Z,95781.45
2019-02-26T04:08:30.304Z,95767.63
2019-02-26T04:11:01.837Z,95768.94
2019-02-26T04:13:29.376Z,95760.39
2019-02-26T04:15:59.594Z,95750.75
2019-02-26T04:18:28.492Z,95746.92
2019-02-26T04:21:03.229Z,95738.45
2019-02-26T04:23:27.573Z,95729.83
2019-02-26T04:26:10.923Z,95723.83
2019-02-26T04:28:57.948Z,95727.43
2019-02-26T04:31:44.568Z,95715.02
2019-02-26T04:34:18.055Z,95714.03
2019-02-26T04:36:55.367Z,95709.69
2019-02-26T04:39:51.266Z,95715.22
2019-02-26T04:42:35.151Z,95713.11
2019-02-26T04:45:13.630Z,95711.16
2019-02-26T04:47:58.346Z,95706.95
2019-02-26T04:50:29.561Z,95712.41
2019-02-26T04:53:01.505Z,95702.45
2019-02-26T04:55:29.722Z,95700.33
2019-02-26T04:57:58.768Z,95703.59
2019-02-26T05:00:29.993Z,95692.24
2019-02-26T05:02:57.884Z,95700.92
2019-02-26T05:05:30.659Z,95699.33
2019-02-26T05:07:56.988Z,95692.48
2019-02-26T05:10:27.011Z,95698.64
2019-02-26T05:12:57.880Z,95693.52
2019-02-26T05:15:30.042Z,95695.61
2019-02-26T05:17:57.156Z,95700.47
2019-02-26T05:20:25.846Z,95695.36
2019-02-26T05:22:58.481Z,95698.48
2019-02-26T05:25:26.209Z,95692.22
2019-02-26T05:27:54.982Z,95699.19
2019-02-26T05:30:23.767Z,95697.56
2019-02-26T05:32:56.637Z,95695.25
2019-02-26T05:35:25.272Z,95693.64
2019-02-26T05:37:56.221Z,95692.28
2019-02-26T05:40:24.698Z,95690.55
2019-02-26T05:42:56.143Z,95687.64
2019-02-26T05:45:26.547Z,95693.27
2019-02-26T05:47:58.697Z,95691.47
2019-02-26T05:50:30.254Z,95688.98
2019-02-26T05:53:01.844Z,95687.14
2019-02-26T05:55:31.965Z,95688.90
2019-02-26T05:58:00.634Z,95701.87
2019-02-26T06:00:32.847Z,95688.52
2019-02-26T06:02:59.733Z,95689.01
2019-02-26T06:05:28.531Z,95685.62
2019-02-26T06:07:57.316Z,95685.38
2019-02-26T06:10:27.167Z,95685.21
2019-02-26T06:12:56.387Z,95691.09
2019-02-26T06:15:25.957Z,95682.27
2019-02-26T06:17:55.961Z,95686.45
2019-02-26T06:20:26.718Z,95689.88
2019-02-26T06:22:55.373Z,95699.97
2019-02-26T06:25:24.693Z,95693.63
2019-02-26T06:27:53.557Z,95698.50
2019-02-26T06:30:22.353Z,95696.53
2019-02-26T06:32:51.055Z,95708.14
2019-02-26T06:35:19.830Z,95699.57
2019-02-26T06:37:48.609Z,95689.42
2019-02-26T06:40:18.020Z,95692.86
2019-02-26T06:42:46.919Z,95690.98
2019-02-26T06:45:16.814Z,95692.31
2019-02-26T06:47:48.656Z,95696.53
2019-02-26T06:50:18.745Z,95710.65
2019-02-26T06:52:48.618Z,95714.27
2019-02-26T06:55:17.604Z,95704.25
2019-02-26T06:57:46.981Z,95706.93
2019-02-26T07:00:21.243Z,95709.73
2019-02-26T07:02:48.802Z,95708.10
2019-02-26T07:05:17.582Z,95715.14
2019-02-26T07:07:46.294Z,95717.73
2019-02-26T07:10:18.384Z,95708.27
2019-02-26T07:12:48.162Z,95708.27
2019-02-26T07:15:16.525Z,95693.42
2019-02-26T07:17:45.864Z,95686.22
2019-02-26T07:20:15.271Z,95697.38
2019-02-26T07:22:46.541Z,95697.69
2019-02-26T07:25:16.650Z,95704.25
2019-02-26T07:27:44.774Z,95697.67
2019-02-26T07:30:13.446Z,95702.23
2019-02-26T07:32:45.046Z,95703.17
2019-02-26T07:35:16.604Z,95693.03
2019-02-26T07:37:44.525Z,95698.55
2019-02-26T07:40:15.836Z,95696.90
2019-02-26T07:42:46.722Z,95689.27
2019-02-26T07:45:17.871Z,95691.62
2019-02-26T07:47:45.374Z,95700.90
2019-02-26T07:50:14.994Z,95706.44
2019-02-26T07:52:44.529Z,95700.13
2019-02-26T07:55:15.337Z,95690.02
2019-02-26T07:57:48.990Z,95682.62
2019-02-26T08:00:21.752Z,95680.19
2019-02-26T08:02:52.047Z,95685.62
2019-02-26T08:05:21.909Z,95681.48
2019-02-26T08:07:53.892Z,95677.03
2019-02-26T08:10:21.824Z,95668.98
2019-02-26T08:12:50.490Z,95669.94
2019-02-26T08:15:20.549Z,95658.68
2019-02-26T08:17:53.202Z,95644.34
2019-02-26T08:20:19.756Z,95638.83
2019-02-26T08:22:49.553Z,95651.77
2019-02-26T08:25:18.953Z,95652.39
2019-02-26T08:27:49.919Z,95642.97
2019-02-26T08:30:21.411Z,95648.92
2019-02-26T08:32:53.540Z,95643.14
2019-02-26T08:35:19.260Z,95633.77
2019-02-26T08:37:48.644Z,95629.19
2019-02-26T08:40:17.330Z,95629.84
2019-02-26T08:42:46.144Z,95625.61
2019-02-26T08:45:23.056Z,95624.86
2019-02-26T08:47:51.142Z,95626.39
2019-02-26T08:50:19.859Z,95615.85
2019-02-26T08:52:52.332Z,95612.47
2019-02-26T08:55:22.315Z,95611.25
2019-02-26T08:57:51.541Z,95611.12
2019-02-26T09:00:22.279Z,95611.56
2019-02-26T09:02:54.445Z,95611.23
2019-02-26T09:05:23.935Z,95608.48
2019-02-26T09:07:52.735Z,95603.70
2019-02-26T09:10:23.314Z,95603.73
2019-02-26T09:12:53.596Z,95604.44
2019-02-26T09:15:22.896Z,95601.03
2019-02-26T09:17:51.578Z,95597.94
2019-02-26T09:20:21.270Z,95591.50
2019-02-26T09:22:52.962Z,95588.80
2019-02-26T09:25:23.335Z,95587.08
2019-02-26T09:27:51.002Z,95586.38
2019-02-26T09:30:20.133Z,95577.61
2019-02-26T09:32:48.830Z,95579.45
2019-02-26T09:35:23.011Z,95583.39
2019-02-26T09:37:52.057Z,95580.14
2019-02-26T09:40:23.502Z,95588.46
2019-02-26T09:42:54.230Z,95581.39
2019-02-26T09:45:26.898Z,95579.68
2019-02-26T09:47:57.163Z,95588.58
2019-02-26T09:50:25.187Z,95586.94
2019-02-26T09:52:59.107Z,95577.56
2019-02-26T09:55:27.372Z,95570.58
2019-02-26T09:57:56.262Z,95569.33
2019-02-26T10:00:27.061Z,95574.27
2019-02-26T10:02:55.376Z,95572.20
2019-02-26T10:05:24.173Z,95571.55
2019-02-26T10:07:55.933Z,95565.92
2019-02-26T10:10:27.524Z,95555.84
2019-02-26T10:12:56.475Z,95553.67
2019-02-26T10:15:24.646Z,95551.62
2019-02-26T10:17:53.644Z,95549.11
2019-02-26T10:20:28.601Z,95534.87
2019-02-26T10:22:58.646Z,95527.37
2019-02-26T10:25:31.032Z,95530.92
2019-02-26T10:27:57.192Z,95514.91
2019-02-26T10:30:28.329Z,95506.70
2019-02-26T10:32:56.506Z,95496.37
2019-02-26T10:35:33.313Z,95499.88
2019-02-26T10:38:02.153Z,95491.72
2019-02-26T10:40:35.225Z,95492.31
2019-02-26T10:42:59.657Z,95493.81
2019-02-26T10:45:36.052Z,95480.70
2019-02-26T10:48:02.259Z,95471.73
2019-02-26T10:50:31.873Z,95471.47
2019-02-26T10:53:07.384Z,95471.27
2019-02-26T10:55:38.332Z,95465.55
2019-02-26T10:58:06.812Z,95458.61
2019-02-26T11:00:35.387Z,95451.58
2019-02-26T11:03:02.886Z,95454.37
2019-02-26T11:05:31.859Z,95449.39
2019-02-26T11:08:02.899Z,95447.86
2019-02-26T11:10:30.992Z,95446.12
2019-02-26T11:13:00.280Z,95442.25
2019-02-26T11:15:31.228Z,95428.78
2019-02-26T11:17:59.392Z,95430.41
2019-02-26T11:20:30.726Z,95432.53
2019-02-26T11:22:58.630Z,95426.67
2019-02-26T11:25:27.749Z,95432.49
2019-02-26T11:27:56.553Z,95419.75
2019-02-26T11:30:32.120Z,95420.37
2019-02-26T11:33:04.795Z,95418.38
2019-02-26T11:35:30.415Z,95405.94
2019-02-26T11:38:01.156Z,95398.14
2019-02-26T11:40:30.636Z,95399.27
2019-02-26T11:43:04.473Z,95386.80
2019-02-26T11:45:32.823Z,95380.09
2019-02-26T11:48:03.440Z,95378.03
2019-02-26T11:50:31.676Z,95376.66
2019-02-26T11:53:00.490Z,95368.42
2019-02-26T11:55:34.347Z,95358.16
2019-02-26T11:58:05.654Z,95369.08
2019-02-26T12:00:51.034Z,95384.99
2019-02-26T12:03:22.855Z,95367.22
2019-02-26T12:05:50.446Z,95367.04
2019-02-26T12:08:21.846Z,95363.75
2019-02-26T12:10:52.194Z,95362.64
2019-02-26T12:13:22.227Z,95354.07
2019-02-26T12:15:50.693Z,95350.94
2019-02-26T12:18:20.426Z,95349.27
2019-02-26T12:20:50.221Z,95336.73
2019-02-26T12:23:22.269Z,95331.48
2019-02-26T12:25:49.867Z,95339.06
2019-02-26T12:28:19.854Z,95334.36
2019-02-26T12:30:48.529Z,95327.70
2019-02-26T12:33:17.247Z,95325.97
2019-02-26T12:35:46.319Z,95318.70
2019-02-26T12:38:18.818Z,95326.24
2019-02-26T12:40:49.924Z,95315.58
2019-02-26T12:43:19.194Z,95320.33
2019-02-26T12:45:48.126Z,95323.03
2019-02-26T12:48:19.652Z,95326.25
2019-02-26T12:50:47.149Z,95326.46
2019-02-26T12:53:17.984Z,95322.37
2019-02-26T12:55:46.149Z,95329.25
2019-02-26T12:58:17.637Z,95339.72
2019-02-26T13:00:46.090Z,95337.82
2019-02-26T13:03:15.881Z,95335.63
2019-02-26T13:05:45.655Z,95330.09
2019-02-26T13:08:18.940Z,95319.63
2019-02-26T13:10:50.226Z,95322.88
2019-02-26T13:13:16.596Z,95326.36
2019-02-26T13:15:45.282Z,95322.75
2019-02-26T13:18:13.896Z,95319.30
2019-02-26T13:20:42.835Z,95322.23
2019-02-26T13:23:20.740Z,95317.44
2019-02-26T13:25:41.936Z,95313.74
2019-02-26T13:28:13.284Z,95320.39
2019-02-26T13:30:41.995Z,95307.59
2019-02-26T13:33:11.304Z,95310.34
2019-02-26T13:35:42.061Z,95309.45
2019-02-26T13:38:10.767Z,95297.47
2019-02-26T13:40:39.513Z,95292.73
2019-02-26T13:43:08.528Z,95290.22
2019-02-26T13:45:37.229Z,95294.77
2019-02-26T13:48:06.000Z,95291.60
2019-02-26T13:50:35.576Z,95299.95
2019-02-26T13:53:05.387Z,95288.78
2019-02-26T13:55:34.048Z,95287.23
2019-02-26T13:58:11.414Z,95272.75
2019-02-26T14:00:33.144Z,95284.02
2019-02-26T14:03:01.845Z,95285.48
2019-02-26T14:05:37.865Z,95277.69
2019-02-26T14:08:01.327Z,95275.95
2019-02-26T14:10:29.970Z,95274.27
2019-02-26T14:12:58.840Z,95285.20
2019-02-26T14:15:31.131Z,95287.81
2019-02-26T14:17:59.810Z,95285.77
2019-02-26T14:20:30.612Z,95282.92
2019-02-26T14:23:04.434Z,95280.88
2019-02-26T14:25:33.083Z,95281.33
2019-02-26T14:28:01.847Z,95287.36
2019-02-26T14:30:30.642Z,95287.82
2019-02-26T14:32:59.326Z,95300.51
2019-02-26T14:35:28.063Z,95301.17
2019-02-26T14:37:56.835Z,95289.36
2019-02-26T14:40:25.505Z,95291.06
2019-02-26T14:42:54.278Z,95282.94
2019-02-26T14:45:24.703Z,95274.39
2019-02-26T14:47:53.487Z,95279.26
2019-02-26T14:50:23.514Z,95285.76
2019-02-26T14:52:52.218Z,95290.04
2019-02-26T14:55:21.191Z,95288.77
2019-02-26T14:57:49.822Z,95285.39
2019-02-26T15:00:21.458Z,95292.30
2019-02-26T15:02:53.291Z,95291.42
2019-02-26T15:05:22.085Z,95293.29
2019-02-26T15:07:51.171Z,95301.75
2019-02-26T15:10:20.529Z,95301.47
2019-02-26T15:12:49.565Z,95307.91
2019-02-26T15:15:19.306Z,95300.04
2019-02-26T15:17:47.984Z,95305.23
2019-02-26T15:20:27.007Z,95306.23
2019-02-26T15:22:55.786Z,95302.08
2019-02-26T15:25:25.811Z,95303.09
2019-02-26T15:28:04.240Z,95303.65
2019-02-26T15:30:25.006Z,95300.11
2019-02-26T15:32:53.754Z,95291.89
2019-02-26T15:35:22.401Z,95292.88
2019-02-26T15:37:51.103Z,95290.20
2019-02-26T15:40:22.224Z,95288.77
2019-02-26T15:42:53.051Z,95298.16
2019-02-26T15:45:33.011Z,95300.45
2019-02-26T15:48:03.977Z,95306.28
2019-02-26T15:50:33.223Z,95303.33
2019-02-26T15:53:02.143Z,95308.70
2019-02-26T15:55:31.931Z,95314.48
2019-02-26T15:58:04.376Z,95314.10
2019-02-26T16:00:32.818Z,95321.34
2019-02-26T16:03:01.621Z,95321.66
2019-02-26T16:05:32.944Z,95324.81
2019-02-26T16:08:01.629Z,95322.12
2019-02-26T16:10:30.264Z,95328.98
2019-02-26T16:13:06.803Z,95325.26
2019-02-26T16:15:36.886Z,95320.48
2019-02-26T16:18:05.565Z,95320.83
2019-02-26T16:20:34.324Z,95314.36
2019-02-26T16:23:03.029Z,95315.82
2019-02-26T16:25:31.759Z,95325.45
2019-02-26T16:28:00.570Z,95340.38
2019-02-26T16:30:29.817Z,95337.20
2019-02-26T16:32:58.632Z,95329.78
2019-02-26T16:35:27.425Z,95322.19
2019-02-26T16:37:56.127Z,95328.00
2019-02-26T16:40:24.901Z,95334.45
2019-02-26T16:42:53.693Z,95332.03
2019-02-26T16:45:26.272Z,95329.39
2019-02-26T16:47:57.173Z,95338.16
2019-02-26T16:50:27.870Z,95339.17
2019-02-26T16:52:57.982Z,95337.56
2019-02-26T16:55:27.622Z,95333.69
2019-02-26T16:57:56.637Z,95347.89
2019-02-26T17:00:27.125Z,95347.11
2019-02-26T17:03:00.959Z,95346.95
2019-02-26T17:05:31.017Z,95354.37
2019-02-26T17:08:01.960Z,95348.23
2019-02-26T17:10:31.335Z,95350.66
2019-02-26T17:13:02.258Z,95350.98
2019-02-26T17:15:35.800Z,95352.45
2019-02-26T17:18:05.021Z,95354.06
2019-02-26T17:20:33.981Z,95346.47
2019-02-26T17:23:03.015Z,95356.00
2019-02-26T17:25:32.542Z,95358.10
2019-02-26T17:28:01.380Z,95348.56
2019-02-26T17:30:30.059Z,95352.28
2019-02-26T17:32:58.848Z,95354.98
2019-02-26T17:35:29.669Z,95355.45
2019-02-26T17:37:59.988Z,95352.36
2019-02-26T17:40:29.061Z,95354.64
2019-02-26T17:42:58.667Z,95346.23
2019-02-26T17:45:30.983Z,95346.88
2019-02-26T17:47:59.680Z,95349.47
2019-02-26T17:50:43.298Z,95351.91
2019-02-26T17:53:13.433Z,95357.53
2019-02-26T17:55:42.217Z,95371.39
2019-02-26T17:58:11.014Z,95382.96
2019-02-26T18:00:42.677Z,95382.95
2019-02-26T18:03:11.576Z,95383.23
2019-02-26T18:05:50.684Z,95390.80
2019-02-26T18:08:11.378Z,95386.00
2019-02-26T18:10:40.273Z,95384.40
2019-02-26T18:13:09.472Z,95375.84
2019-02-26T18:15:39.695Z,95369.38
2019-02-26T18:18:08.625Z,95377.36
2019-02-26T18:20:37.385Z,95361.58
2019-02-26T18:23:06.164Z,95360.03
2019-02-26T18:25:35.111Z,95357.09
2019-02-26T18:28:04.039Z,95361.09
2019-02-26T18:30:32.747Z,95350.69
2019-02-26T18:33:01.639Z,95345.00
2019-02-26T18:35:30.260Z,95349.63
2019-02-26T18:37:58.995Z,95347.52
2019-02-26T18:40:29.038Z,95344.67
2019-02-26T18:42:57.931Z,95345.82
2019-02-26T18:45:29.524Z,95342.90
2019-02-26T18:47:58.272Z,95332.33
2019-02-26T18:50:29.338Z,95334.38
2019-02-26T18:52:58.742Z,95336.87
2019-02-26T18:55:29.401Z,95337.88
2019-02-26T18:57:59.260Z,95332.34
2019-02-26T19:00:32.348Z,95334.38
2019-02-26T19:03:01.126Z,95330.88
2019-02-26T19:05:29.921Z,95333.36
2019-02-26T19:07:59.586Z,95337.69
2019-02-26T19:10:28.341Z,95333.73
2019-02-26T19:13:02.451Z,95333.64
2019-02-26T19:15:31.615Z,95337.11
2019-02-26T19:18:02.663Z,95328.81
2019-02-26T19:20:40.154Z,95338.87
2019-02-26T19:23:14.931Z,95327.28
2019-02-26T19:25:41.555Z,95334.41
2019-02-26T19:28:09.974Z,95337.47
2019-02-26T19:30:39.139Z,95342.34
2019-02-26T19:33:10.742Z,95336.18
2019-02-26T19:35:40.500Z,95335.88
2019-02-26T19:38:09.486Z,95327.74
2019-02-26T19:40:50.193Z,95316.20
2019-02-26T19:43:18.880Z,95320.69
2019-02-26T19:45:47.795Z,95325.50
2019-02-26T19:48:16.446Z,95328.46
2019-02-26T19:50:47.926Z,95337.02
2019-02-26T19:53:15.605Z,95340.64
2019-02-26T19:55:49.167Z,95344.94
2019-02-26T19:58:18.091Z,95345.72
2019-02-26T20:00:52.637Z,95347.59
2019-02-26T20:03:18.847Z,95355.41
2019-02-26T20:05:47.644Z,95364.34
2019-02-26T20:08:16.318Z,95354.72
2019-02-26T20:10:48.013Z,95349.25
2019-02-26T20:13:15.750Z,95347.52
2019-02-26T20:15:44.650Z,95346.50
2019-02-26T20:18:20.552Z,95341.23
2019-02-26T20:20:46.042Z,95339.37
2019-02-26T20:23:14.282Z,95341.16
2019-02-26T20:25:43.363Z,95341.47
2019-02-26T20:28:12.020Z,95341.35
2019-02-26T20:30:40.732Z,95350.03
2019-02-26T20:33:09.440Z,95353.95
2019-02-26T20:35:38.118Z,95352.44
2019-02-26T20:38:07.191Z,95351.16
2019-02-26T20:40:36.241Z,95346.34
2019-02-26T20:43:05.425Z,95350.15
2019-02-26T20:45:34.296Z,95358.47
2019-02-26T20:48:06.094Z,95348.37
2019-02-26T20:50:35.064Z,95355.64
2019-02-26T20:53:05.902Z,95362.66
2019-02-26T20:55:35.406Z,95368.64
2019-02-26T20:58:04.098Z,95364.84
2019-02-26T21:00:32.867Z,95367.62
2019-02-26T21:03:01.994Z,95363.76
2019-02-26T21:05:32.496Z,95368.38
2019-02-26T21:08:04.574Z,95367.39
2019-02-26T21:10:35.411Z,95364.88
2019-02-26T21:13:04.614Z,95369.45
2019-02-26T21:15:33.973Z,95369.00
2019-02-26T21:18:02.898Z,95365.89
2019-02-26T21:20:31.894Z,95368.31
2019-02-26T21:23:01.092Z,95379.55
2019-02-26T21:25:30.147Z,95374.89
2019-02-26T21:28:01.464Z,95376.58
2019-02-26T21:30:29.683Z,95376.95
2019-02-26T21:33:00.259Z,95380.26
2019-02-26T21:35:29.020Z,95374.37
2019-02-26T21:37:57.951Z,95373.06
2019-02-26T21:40:28.340Z,95373.36
2019-02-26T21:42:57.026Z,95376.11
2019-02-26T21:45:29.195Z,95376.39
2019-02-26T21:47:57.774Z,95376.01
2019-02-26T21:50:27.995Z,95372.07
2019-02-26T21:52:59.672Z,95370.59
2019-02-26T21:55:33.789Z,95371.86
2019-02-26T21:58:00.925Z,95367.88
2019-02-26T22:00:29.908Z,95373.16
2019-02-26T22:02:58.997Z,95372.49
2019-02-26T22:05:27.689Z,95373.48
2019-02-26T22:07:58.273Z,95375.86
2019-02-26T22:10:27.895Z,95382.16
2019-02-26T22:12:57.302Z,95377.40
2019-02-26T22:15:26.124Z,95382.92
2019-02-26T22:17:55.716Z,95382.77
2019-02-26T22:20:35.814Z,95384.78
2019-02-26T22:22:57.856Z,95399.38
2019-02-26T22:25:26.950Z,95403.30
2019-02-26T22:27:55.704Z,95405.34
2019-02-26T22:30:27.046Z,95394.49
2019-02-26T22:32:55.835Z,95400.06
2019-02-26T22:35:25.891Z,95400.33
2019-02-26T22:37:55.147Z,95393.33
2019-02-26T22:40:28.874Z,95389.05
2019-02-26T22:42:55.900Z,95382.17
2019-02-26T22:45:27.712Z,95377.55
2019-02-26T22:47:55.327Z,95384.38
2019-02-26T22:50:24.822Z,95381.58
2019-02-26T22:52:54.434Z,95383.14
2019-02-26T22:55:23.060Z,95383.02
2019-02-26T22:57:51.730Z,95378.71
2019-02-26T23:00:35.750Z,95364.50
2019-02-26T23:03:05.074Z,95360.31
2019-02-26T23:05:33.738Z,95362.96
2019-02-26T23:08:02.343Z,95366.02
2019-02-26T23:10:31.116Z,95378.69
2019-02-26T23:12:59.762Z,95375.85
2019-02-26T23:15:28.436Z,95368.35
2019-02-26T23:17:58.392Z,95365.48
2019-02-26T23:20:29.261Z,95369.78
2019-02-26T23:22:58.645Z,95357.77
2019-02-26T23:25:27.331Z,95359.33
2019-02-26T23:27:56.217Z,95367.72
2019-02-26T23:30:27.195Z,95368.06
2019-02-26T23:32:55.436Z,95358.08
2019-02-26T23:35:24.117Z,95359.69
2019-02-26T23:37:53.935Z,95353.47
2019-02-26T23:40:24.921Z,95346.45
2019-02-26T23:42:53.484Z,95348.81
2019-02-26T23:45:24.155Z,95345.10
2019-02-26T23:47:52.568Z,95339.91
2019-02-26T23:50:21.254Z,95339.62
2019-02-26T23:52:50.046Z,95336.65
2019-02-26T23:55:18.832Z,95335.92
2019-02-26T23:57:47.452Z,95329.91
